createdAt,value
2023-03-07T15:11:55.950Z,59.39
2023-03-07T15:12:56.879Z,58.89
2023-03-07T15:13:56.859Z,59.19
2023-03-07T15:14:56.811Z,58.69
2023-03-07T15:15:56.867Z,59.89
2023-03-07T15:16:56.831Z,59.66
2023-03-07T15:17:56.694Z,59.36
2023-03-07T15:18:56.623Z,59.23
2023-03-07T15:19:56.627Z,59.04
2023-03-07T15:20:56.593Z,58.81
2023-03-07T15:21:56.548Z,58.81
2023-03-07T15:22:56.531Z,58.61
2023-03-07T15:23:56.424Z,58.48
2023-03-07T15:24:56.364Z,58.48
2023-03-07T15:27:10.718Z,59.15
2023-03-07T15:32:11.840Z,59.25
2023-03-07T15:33:12.350Z,58.25
2023-03-07T15:34:12.304Z,58.75
2023-03-07T15:35:12.352Z,59.15
2023-03-07T15:38:32.195Z,59.30
2023-03-07T15:39:33.239Z,59.66
2023-03-07T16:11:59.202Z,63.86
2023-03-07T16:12:59.633Z,64.56
2023-03-07T16:13:59.674Z,64.69
2023-03-07T16:14:59.759Z,65.39
2023-03-07T16:15:56.359Z,66.19
2023-03-07T16:16:57.522Z,85.69
2023-03-07T16:19:45.792Z,49.30
2023-03-07T16:20:53.819Z,51.03
2023-03-07T16:22:50.536Z,57.71
2023-03-07T16:23:50.058Z,60.10
2023-03-07T16:24:49.962Z,61.76
2023-03-07T16:35:53.227Z,66.42
2023-03-07T16:36:54.827Z,66.42
2023-03-07T16:37:54.318Z,66.01
2023-03-07T16:38:54.369Z,65.49
2023-03-07T16:40:00.404Z,66.11
2023-03-07T17:04:32.842Z,65.31
2023-03-07T17:05:33.549Z,66.04
2023-03-07T17:06:39.282Z,65.31
2023-03-07T17:07:33.828Z,65.52
2023-03-07T17:08:33.806Z,65.73
2023-03-07T17:09:34.770Z,65.97
2023-03-07T17:10:33.991Z,65.97
2023-03-07T17:11:34.082Z,65.86
2023-03-07T17:12:34.236Z,66.48
2023-03-07T17:13:34.232Z,66.20
2023-03-07T17:14:34.305Z,66.82
2023-03-07T17:15:34.450Z,67.34
2023-03-07T17:16:34.440Z,67.03
2023-03-07T17:17:34.647Z,67.47
2023-03-07T17:18:34.617Z,67.06
2023-03-07T17:19:34.696Z,66.82
2023-03-07T17:20:34.810Z,67.03
2023-03-07T17:21:34.941Z,67.58
2023-03-07T17:22:34.966Z,67.58
2023-03-07T17:23:35.023Z,67.88
2023-03-07T17:24:35.076Z,68.33
2023-03-07T17:25:35.246Z,68.54
2023-03-07T17:26:35.312Z,68.85
2023-03-07T17:27:35.371Z,68.33
2023-03-07T17:28:35.422Z,68.02
2023-03-07T17:29:35.489Z,68.23
2023-03-07T17:30:35.565Z,68.02
2023-03-07T17:31:35.723Z,68.77
2023-03-07T17:32:35.837Z,68.46
2023-03-07T17:33:35.866Z,68.46
2023-03-07T17:34:35.929Z,68.57
2023-03-07T17:35:36.038Z,68.57
2023-03-07T17:36:36.136Z,68.15
2023-03-07T17:37:36.147Z,68.77
2023-03-07T17:38:36.241Z,69.01
2023-03-07T17:39:36.349Z,68.80
2023-03-07T17:40:36.466Z,68.70
2023-03-07T17:41:37.814Z,68.80
2023-03-07T17:42:36.588Z,68.80
2023-03-07T17:43:36.672Z,68.60
2023-03-07T17:44:36.751Z,68.80
2023-03-07T17:45:36.881Z,68.91
2023-03-07T17:46:36.983Z,69.12
2023-03-07T17:47:37.104Z,69.01
2023-03-07T17:48:37.110Z,68.60
2023-03-07T17:49:37.323Z,69.12
2023-03-07T17:50:37.291Z,68.70
2023-03-07T17:51:37.378Z,69.12
2023-03-07T17:52:37.459Z,69.43
2023-03-07T17:53:37.527Z,69.32
2023-03-07T17:54:37.570Z,69.12
2023-03-07T17:55:37.671Z,69.22
2023-03-07T17:56:37.769Z,68.91
2023-03-07T17:57:37.861Z,69.01
2023-03-07T17:58:37.943Z,68.91
2023-03-07T17:59:38.007Z,69.01
2023-03-07T18:00:38.131Z,69.01
2023-03-07T18:01:38.295Z,68.98
2023-03-07T18:02:38.371Z,69.32
2023-03-07T18:03:38.310Z,69.53
2023-03-07T18:04:38.397Z,69.64
2023-03-07T18:05:38.511Z,69.64
2023-03-07T18:06:40.886Z,69.95
2023-03-07T18:07:38.681Z,70.26
2023-03-07T18:08:38.773Z,70.98
2023-03-07T18:09:38.934Z,70.91
2023-03-07T18:10:38.954Z,70.70
2023-03-07T18:11:39.065Z,70.36
2023-03-07T18:12:39.406Z,70.15
2023-03-07T18:13:39.215Z,70.36
2023-03-07T18:14:39.318Z,70.47
2023-03-07T18:15:39.408Z,70.67
2023-03-07T18:16:39.480Z,70.36
2023-03-07T18:17:47.947Z,71.08
2023-03-07T18:18:43.304Z,70.98
2023-03-07T18:19:39.722Z,71.08
2023-03-07T18:20:39.781Z,70.87
2023-03-07T18:21:39.837Z,70.26
2023-03-07T18:22:39.927Z,69.64
2023-03-07T18:23:39.988Z,69.71
2023-03-07T18:24:40.070Z,69.40
2023-03-07T18:25:40.207Z,69.19
2023-03-07T18:26:41.256Z,69.06
2023-03-07T18:27:40.325Z,69.16
2023-03-07T18:28:40.415Z,69.06
2023-03-07T18:29:40.504Z,69.06
2023-03-07T18:30:40.617Z,69.06
2023-03-07T18:31:40.742Z,68.85
2023-03-07T18:32:40.805Z,69.16
2023-03-07T18:33:40.914Z,69.16
2023-03-07T18:34:41.057Z,68.64
2023-03-07T18:35:41.059Z,68.85
2023-03-07T18:36:41.091Z,68.43
2023-03-07T18:37:42.911Z,68.85
2023-03-07T18:38:41.245Z,68.33
2023-03-07T18:39:41.340Z,68.95
2023-03-07T18:40:41.438Z,69.06
2023-03-07T18:41:41.521Z,68.54
2023-03-07T18:42:41.631Z,68.74
2023-03-07T18:43:41.720Z,68.74
2023-03-07T18:44:41.817Z,68.95
2023-03-07T18:45:41.921Z,69.09
2023-03-07T18:46:42.179Z,68.88
2023-03-07T18:47:42.067Z,68.98
2023-03-07T18:48:42.159Z,69.09
2023-03-07T18:49:42.293Z,68.88
2023-03-07T18:50:42.381Z,69.29
2023-03-07T18:51:42.432Z,69.32
2023-03-07T18:52:42.557Z,69.32
2023-03-07T18:53:42.709Z,69.01
2023-03-07T18:54:42.744Z,69.12
2023-03-07T18:55:42.875Z,68.77
2023-03-07T18:56:43.080Z,68.77
2023-03-07T18:57:43.014Z,68.98
2023-03-07T18:58:43.100Z,69.19
2023-03-07T18:59:43.456Z,69.09
2023-03-07T19:00:43.317Z,68.88
2023-03-07T19:01:43.375Z,68.67
2023-03-07T19:02:43.448Z,68.98
2023-03-07T19:03:43.550Z,68.88
2023-03-07T19:04:43.656Z,68.36
2023-03-07T19:05:43.752Z,68.57
2023-03-07T19:06:43.804Z,68.26
2023-03-07T19:07:43.922Z,67.95
2023-03-07T19:08:43.967Z,68.26
2023-03-07T19:09:45.739Z,67.71
2023-03-07T19:10:44.224Z,68.12
2023-03-07T19:11:44.234Z,68.23
2023-03-07T19:12:44.375Z,68.02
2023-03-07T19:13:44.414Z,67.82
2023-03-07T19:14:44.521Z,67.82
2023-03-07T19:15:44.971Z,67.91
2023-03-07T19:16:44.757Z,68.23
2023-03-07T19:17:44.787Z,68.12
2023-03-07T19:18:44.925Z,68.46
2023-03-07T19:19:44.984Z,68.67
2023-03-07T19:20:45.082Z,68.88
2023-03-07T19:21:45.140Z,68.57
2023-03-07T19:22:45.255Z,68.77
2023-03-07T19:23:45.299Z,68.88
2023-03-07T19:24:45.421Z,68.98
2023-03-07T19:25:45.540Z,69.19
2023-03-07T19:26:45.561Z,69.09
2023-03-07T19:27:45.652Z,69.09
2023-03-07T19:28:45.720Z,69.09
2023-03-07T19:29:45.805Z,69.09
2023-03-07T19:30:46.000Z,69.53
2023-03-07T19:31:46.027Z,69.50
2023-03-07T19:32:46.168Z,69.53
2023-03-07T19:33:46.130Z,69.50
2023-03-07T19:34:46.260Z,69.40
2023-03-07T19:35:46.385Z,69.29
2023-03-07T19:36:46.419Z,69.19
2023-03-07T19:37:46.521Z,68.98
2023-03-07T19:38:46.585Z,68.98
2023-03-07T19:39:46.660Z,68.98
2023-03-07T19:40:46.748Z,69.40
2023-03-07T19:41:46.828Z,69.60
2023-03-07T19:42:46.882Z,69.84
2023-03-07T19:43:47.085Z,69.84
2023-03-07T19:44:47.071Z,69.71
2023-03-07T19:45:47.239Z,69.60
2023-03-07T19:46:47.362Z,69.50
2023-03-07T19:47:47.320Z,69.60
2023-03-07T19:48:47.441Z,69.50
2023-03-07T19:49:48.345Z,69.92
2023-03-07T19:50:47.646Z,69.81
2023-03-07T19:51:47.643Z,69.40
2023-03-07T19:52:47.747Z,69.29
2023-03-07T19:53:47.818Z,69.50
2023-03-07T19:54:47.900Z,69.50
2023-03-07T19:55:48.001Z,69.92
2023-03-07T19:56:48.107Z,69.81
2023-03-07T19:57:48.208Z,69.81
2023-03-07T19:58:48.306Z,69.50
2023-03-07T19:59:48.332Z,69.81
2023-03-07T20:00:48.393Z,69.50
2023-03-07T20:01:48.644Z,69.81
2023-03-07T20:02:48.568Z,69.29
2023-03-07T20:03:48.606Z,69.71
2023-03-07T20:04:48.701Z,69.53
2023-03-07T20:05:48.898Z,70.26
2023-03-07T20:06:48.880Z,70.36
2023-03-07T20:07:48.960Z,70.57
2023-03-07T20:08:49.072Z,70.67
2023-03-07T20:09:49.157Z,70.77
2023-03-07T20:10:53.867Z,70.26
2023-03-07T20:11:49.341Z,70.47
2023-03-07T20:12:49.411Z,70.26
2023-03-07T20:13:49.571Z,70.05
2023-03-07T20:14:49.565Z,70.26
2023-03-07T20:15:50.017Z,70.36
2023-03-07T20:16:49.766Z,69.95
2023-03-07T20:17:49.892Z,69.84
2023-03-07T20:18:49.994Z,69.53
2023-03-07T20:19:50.039Z,69.60
2023-03-07T20:20:50.124Z,69.84
2023-03-07T20:21:50.154Z,70.05
2023-03-07T20:22:50.259Z,69.84
2023-03-07T20:23:50.311Z,70.05
2023-03-07T20:24:50.394Z,70.26
2023-03-07T20:25:50.590Z,70.77
2023-03-07T20:26:50.635Z,70.47
2023-03-07T20:27:50.707Z,70.36
2023-03-07T20:28:50.724Z,70.15
2023-03-07T20:29:50.785Z,70.36
2023-03-07T20:30:50.975Z,70.57
2023-03-07T20:31:50.972Z,70.26
2023-03-07T20:32:51.051Z,70.15
2023-03-07T20:33:51.086Z,70.26
2023-03-07T20:34:51.203Z,70.67
2023-03-07T20:35:51.349Z,70.57
2023-03-07T20:36:51.390Z,71.29
2023-03-07T20:37:51.766Z,71.29
2023-03-07T20:38:51.552Z,71.50
2023-03-07T20:39:51.844Z,71.29
2023-03-07T20:40:51.934Z,70.87
2023-03-07T20:41:51.836Z,71.29
2023-03-07T20:43:00.121Z,71.19
2023-03-07T20:43:51.918Z,71.19
2023-03-07T20:44:52.282Z,71.50
2023-03-07T20:45:52.235Z,71.81
2023-03-07T20:51:20.213Z,71.81
2023-03-07T20:52:21.659Z,72.12
2023-03-07T20:53:21.407Z,72.43
2023-03-07T20:54:21.363Z,72.74
2023-03-07T20:55:21.555Z,72.74
2023-03-07T20:56:21.559Z,72.74
2023-03-07T20:57:21.632Z,72.94
2023-03-07T20:58:21.847Z,72.94
2023-03-07T20:59:21.808Z,72.85
2023-03-07T21:00:21.908Z,72.64
2023-03-07T21:01:21.970Z,72.64
2023-03-07T21:02:22.101Z,72.43
2023-03-07T21:03:22.169Z,72.74
2023-03-07T21:04:22.240Z,72.64
2023-03-07T21:05:22.360Z,72.53
2023-03-07T21:06:22.389Z,72.33
2023-03-07T21:07:22.588Z,72.22
2023-03-07T21:08:22.574Z,71.98
2023-03-07T21:09:22.595Z,71.98
2023-03-07T21:10:25.085Z,72.08
2023-03-07T21:11:22.858Z,71.88
2023-03-07T21:12:22.839Z,72.29
